Other Surface Observations
Issued by NWS Great Falls, MT

Home | Current Version | Previous Version | Text Only | Print | Product List | Glossary On
Versions: 1 2 3 4 5 6 7 8 9 10 11 12 13 14 15 16 17 18 19 20 21 22 23 24 25 26 27 28 29 30 31 32 33 34 35 36 37 38 39 40 41 42 43 44 45 46 47 48 49 50
000
SXUS55 KTFX 201544
OSOTFX
AREA AWOS OBSERVATIONS
NATIONAL WEATHER SERVICE GREAT FALLS MT
0844 AM MST FRI JAN 20 2017

METAR KPWD 201545Z AUTO 31009KT 7SM M04/M06 A2938 RMK PLENTYWOOD
METAR KPO1 201545Z AUTO 00000KT 1 3/4SM M07/M08 A2943 RMK POPLAR
METAR K1S3 201545Z AUTO 25006KT 3SM 02/02 A2946 RMK FORSYTH
METAR KS71 201545Z AUTO 00000KT 10SM M01/M03 A2944 RMK CHINOOK
METAR K79S 201545Z AUTO 10SM 01/M03 A2947 RMK FORT BENTON
METAR K38S 201545Z AUTO 00000KT M1/4SM M02/M02 A2949 RMK DEER LODGE
METAR K3U3 201545Z AUTO 16006KT 10SM M03/M06 A2947 RMK ANACONDA
METAR K6S5 201545Z AUTO 00000KT M1/4SM M03/M04 A2950 RMK HAMILTON
METAR K88M 201545Z AUTO 16010KT 10SM 02/M01 A2945 RMK EUREKA



USA.gov is the U.S. government's official web portal to all federal, state and local government web resources and services.